Time,TemperatureF,DewpointF,PressureIn,WindDirection,WindDirectionDegrees,WindSpeedMPH,WindSpeedGustMPH,Humidity,HourlyPrecipIn,Conditions,Clouds,dailyrainin,SoftwareType,DateUTC
2013-04-16 00:00:00,42.9,29.2,30.28,South,178,1.0,2.0,58,0.00,,CLR,0.00,VWS V14.01,2013-04-16 04:00:00,
2013-04-16 00:01:00,42.9,29.2,30.29,South,178,0.0,2.0,58,0.00,,CLR,0.00,VWS V14.01,2013-04-16 04:01:00,
2013-04-16 00:02:00,42.9,29.2,30.29,SSW,205,1.0,3.0,58,0.00,,CLR,0.00,VWS V14.01,2013-04-16 04:02:00,
2013-04-16 00:07:00,42.8,29.1,30.29,SSW,205,0.0,0.0,58,0.00,,CLR,0.00,VWS V14.01,2013-04-16 04:07:00,
2013-04-16 00:12:00,42.8,29.1,30.29,South,186,0.0,1.0,58,0.00,,CLR,0.00,VWS V14.01,2013-04-16 04:12:00,
2013-04-16 00:18:00,42.6,28.9,30.29,SSW,203,2.0,5.0,58,0.00,,CLR,0.00,VWS V14.01,2013-04-16 04:18:00,
2013-04-16 00:23:00,42.5,29.2,30.29,SSW,205,0.0,0.0,59,0.00,,CLR,0.00,VWS V14.01,2013-04-16 04:23:00,
2013-04-16 00:28:00,42.3,29.0,30.29,SSW,205,0.0,0.0,59,0.00,,CLR,0.00,VWS V14.01,2013-04-16 04:28:00,
2013-04-16 00:33:00,42.2,28.9,30.29,SSW,205,0.0,1.0,59,0.00,,CLR,0.00,VWS V14.01,2013-04-16 04:33:00,
2013-04-16 00:38:00,42.1,29.2,30.29,SSW,205,0.0,0.0,60,0.00,,CLR,0.00,VWS V14.01,2013-04-16 04:38:00,
2013-04-16 00:43:00,41.9,29.0,30.29,SSW,205,0.0,0.0,60,0.00,,CLR,0.00,VWS V14.01,2013-04-16 04:43:00,
2013-04-16 00:48:00,41.6,28.8,30.29,SSW,205,0.0,0.0,60,0.00,,CLR,0.00,VWS V14.01,2013-04-16 04:48:00,
2013-04-16 00:53:00,41.5,29.1,30.29,SSW,205,0.0,0.0,61,0.00,,CLR,0.00,VWS V14.01,2013-04-16 04:53:00,
2013-04-16 00:59:00,41.2,28.8,30.29,SSW,205,0.0,0.0,61,0.00,,CLR,0.00,VWS V14.01,2013-04-16 04:59:00,
2013-04-16 01:04:00,40.9,28.5,30.30,SSW,205,0.0,0.0,61,0.00,,CLR,0.00,VWS V14.01,2013-04-16 05:04:00,
2013-04-16 01:09:00,40.8,28.8,30.30,SSW,203,0.0,1.0,62,0.00,,CLR,0.00,VWS V14.01,2013-04-16 05:09:00,
2013-04-16 01:14:00,40.5,28.9,30.30,SSW,202,0.0,2.0,63,0.00,,CLR,0.00,VWS V14.01,2013-04-16 05:14:00,
2013-04-16 01:19:00,40.2,29.0,30.29,SSW,202,0.0,0.0,64,0.00,,CLR,0.00,VWS V14.01,2013-04-16 05:19:00,
2013-04-16 01:24:00,40.1,28.9,30.29,SSW,202,0.0,0.0,64,0.00,,CLR,0.00,VWS V14.01,2013-04-16 05:24:00,
2013-04-16 01:29:00,39.8,29.0,30.29,SSW,202,0.0,0.0,65,0.00,,CLR,0.00,VWS V14.01,2013-04-16 05:29:00,
2013-04-16 01:34:00,39.6,28.8,30.30,SSW,202,0.0,0.0,65,0.00,,CLR,0.00,VWS V14.01,2013-04-16 05:34:00,
2013-04-16 01:39:00,39.5,29.1,30.30,SSW,202,0.0,0.0,66,0.00,,CLR,0.00,VWS V14.01,2013-04-16 05:39:00,
2013-04-16 01:45:00,39.2,28.8,30.30,SSW,202,0.0,0.0,66,0.00,,CLR,0.00,VWS V14.01,2013-04-16 05:45:00,
2013-04-16 01:50:00,38.9,28.5,30.30,SSW,202,0.0,0.0,66,0.00,,CLR,0.00,VWS V14.01,2013-04-16 05:50:00,
2013-04-16 01:55:00,38.8,28.4,30.30,SSW,202,0.0,0.0,66,0.00,,CLR,0.00,VWS V14.01,2013-04-16 05:55:00,
2013-04-16 02:00:00,38.5,28.1,30.30,SSW,202,0.0,0.0,66,0.00,,CLR,0.00,VWS V14.01,2013-04-16 06:00:00,
2013-04-16 02:05:00,38.3,28.3,30.30,SSW,202,0.0,0.0,67,0.00,,CLR,0.00,VWS V14.01,2013-04-16 06:05:00,
2013-04-16 02:10:00,38.2,28.2,30.30,SSW,202,0.0,0.0,67,0.00,,CLR,0.00,VWS V14.01,2013-04-16 06:10:00,
2013-04-16 02:15:00,37.9,27.9,30.28,SSW,202,0.0,0.0,67,0.00,,CLR,0.00,VWS V14.01,2013-04-16 06:15:00,
2013-04-16 02:21:00,37.8,28.2,30.28,SSW,202,0.0,0.0,68,0.00,,CLR,0.00,VWS V14.01,2013-04-16 06:21:00,
2013-04-16 02:26:00,37.8,28.6,30.28,SSW,202,0.0,0.0,69,0.00,,CLR,0.00,VWS V14.01,2013-04-16 06:26:00,
2013-04-16 02:31:00,37.6,28.7,30.29,SSW,202,0.0,0.0,70,0.00,,CLR,0.00,VWS V14.01,2013-04-16 06:31:00,
2013-04-16 02:36:00,37.5,29.3,30.29,SSW,202,0.0,0.0,72,0.00,,CLR,0.00,VWS V14.01,2013-04-16 06:36:00,
2013-04-16 02:41:00,37.3,29.1,30.29,SSW,202,0.0,0.0,72,0.00,,CLR,0.00,VWS V14.01,2013-04-16 06:41:00,
2013-04-16 02:46:00,37.0,28.8,30.29,SSW,202,0.0,0.0,72,0.00,,CLR,0.00,VWS V14.01,2013-04-16 06:46:00,
2013-04-16 02:52:00,36.9,28.7,30.29,SSW,202,0.0,0.0,72,0.00,,CLR,0.00,VWS V14.01,2013-04-16 06:52:00,
2013-04-16 02:57:00,36.8,28.6,30.29,SSW,202,0.0,0.0,72,0.00,,CLR,0.00,VWS V14.01,2013-04-16 06:57:00,
2013-04-16 03:02:00,36.6,28.4,30.29,SSW,202,0.0,0.0,72,0.00,,CLR,0.00,VWS V14.01,2013-04-16 07:02:00,
2013-04-16 03:07:00,36.3,28.1,30.29,SSW,202,0.0,0.0,72,0.00,,CLR,0.00,VWS V14.01,2013-04-16 07:07:00,
2013-04-16 03:12:00,36.2,28.1,30.29,SSW,202,0.0,0.0,72,0.00,,CLR,0.00,VWS V14.01,2013-04-16 07:12:00,
2013-04-16 03:18:00,36.0,27.9,30.29,SSW,202,0.0,0.0,72,0.00,,CLR,0.00,VWS V14.01,2013-04-16 07:18:00,
2013-04-16 03:23:00,35.9,28.1,30.29,SSW,202,0.0,0.0,73,0.00,,CLR,0.00,VWS V14.01,2013-04-16 07:23:00,
2013-04-16 03:28:00,35.8,28.3,30.29,SSW,202,0.0,0.0,74,0.00,,CLR,0.00,VWS V14.01,2013-04-16 07:28:00,
2013-04-16 03:33:00,35.8,28.7,30.29,SSW,202,0.0,0.0,75,0.00,,CLR,0.00,VWS V14.01,2013-04-16 07:33:00,
2013-04-16 03:38:00,35.6,28.8,30.29,SSW,202,0.0,0.0,76,0.00,,CLR,0.00,VWS V14.01,2013-04-16 07:38:00,
2013-04-16 03:43:00,35.5,28.7,30.29,SSW,202,0.0,0.0,76,0.00,,CLR,0.00,VWS V14.01,2013-04-16 07:43:00,
2013-04-16 03:48:00,35.3,28.5,30.29,SSW,202,0.0,0.0,76,0.00,,CLR,0.00,VWS V14.01,2013-04-16 07:48:00,
2013-04-16 03:54:00,35.2,28.7,30.29,SSW,202,0.0,0.0,77,0.00,,CLR,0.00,VWS V14.01,2013-04-16 07:54:00,
2013-04-16 03:59:00,35.0,28.9,30.29,SSW,202,0.0,0.0,78,0.00,,CLR,0.00,VWS V14.01,2013-04-16 07:59:00,
2013-04-16 04:04:00,35.0,29.2,30.29,SSW,203,0.0,0.0,79,0.00,,CLR,0.00,VWS V14.01,2013-04-16 08:04:00,
2013-04-16 04:09:00,34.9,29.4,30.29,SSW,203,0.0,0.0,80,0.00,,CLR,0.00,VWS V14.01,2013-04-16 08:09:00,
2013-04-16 04:14:00,34.7,29.2,30.29,SSW,203,0.0,0.0,80,0.00,,CLR,0.00,VWS V14.01,2013-04-16 08:14:00,
2013-04-16 04:19:00,34.6,29.4,30.29,SSW,203,0.0,0.0,81,0.00,,CLR,0.00,VWS V14.01,2013-04-16 08:19:00,
2013-04-16 04:24:00,34.4,29.2,30.29,SSW,203,0.0,0.0,81,0.00,,CLR,0.00,VWS V14.01,2013-04-16 08:24:00,
2013-04-16 04:30:00,34.4,29.2,30.29,SSW,203,0.0,0.0,81,0.00,,CLR,0.00,VWS V14.01,2013-04-16 08:30:00,
2013-04-16 04:35:00,34.3,29.4,30.29,SSW,203,0.0,0.0,82,0.00,,CLR,0.00,VWS V14.01,2013-04-16 08:35:00,
2013-04-16 04:40:00,34.1,29.2,30.29,SSW,203,0.0,0.0,82,0.00,,CLR,0.00,VWS V14.01,2013-04-16 08:40:00,
2013-04-16 04:45:00,34.1,29.2,30.29,SSW,203,0.0,0.0,82,0.00,,CLR,0.00,VWS V14.01,2013-04-16 08:45:00,
2013-04-16 04:50:00,34.0,29.1,30.29,SSW,203,0.0,0.0,82,0.00,,CLR,0.00,VWS V14.01,2013-04-16 08:50:00,
2013-04-16 04:55:00,34.0,29.1,30.29,SSW,203,0.0,0.0,82,0.00,,CLR,0.00,VWS V14.01,2013-04-16 08:55:00,
2013-04-16 05:00:00,34.0,29.4,30.28,SSW,203,0.0,0.0,83,0.00,,CLR,0.00,VWS V14.01,2013-04-16 09:00:00,
2013-04-16 05:05:00,33.8,29.2,30.28,WSW,244,0.0,2.0,83,0.00,,BKN100,0.00,VWS V14.01,2013-04-16 09:05:00,
2013-04-16 05:10:00,33.8,29.5,30.28,WSW,244,0.0,0.0,84,0.00,,BKN100,0.00,VWS V14.01,2013-04-16 09:10:00,
2013-04-16 05:16:00,33.8,29.5,30.28,WSW,244,0.0,0.0,84,0.00,,BKN100,0.00,VWS V14.01,2013-04-16 09:16:00,
2013-04-16 05:21:00,33.8,29.5,30.28,WSW,244,0.0,0.0,84,0.00,,BKN100,0.00,VWS V14.01,2013-04-16 09:21:00,
2013-04-16 05:27:00,33.8,29.8,30.28,WSW,244,0.0,1.0,85,0.00,,BKN100,0.00,VWS V14.01,2013-04-16 09:27:00,
2013-04-16 05:32:00,33.8,29.8,30.28,WSW,244,0.0,0.0,85,0.00,,BKN100,0.00,VWS V14.01,2013-04-16 09:32:00,
2013-04-16 05:37:00,33.8,29.8,30.28,WSW,244,0.0,0.0,85,0.00,,BKN100,0.00,VWS V14.01,2013-04-16 09:37:00,
2013-04-16 05:42:00,33.8,30.1,30.28,WSW,244,0.0,0.0,86,0.00,,BKN100,0.00,VWS V14.01,2013-04-16 09:42:00,
2013-04-16 05:47:00,33.8,30.1,30.28,WSW,244,0.0,0.0,86,0.00,,BKN100,0.00,VWS V14.01,2013-04-16 09:47:00,
2013-04-16 05:52:00,33.8,30.1,30.28,WSW,244,0.0,0.0,86,0.00,,BKN100,0.00,VWS V14.01,2013-04-16 09:52:00,
2013-04-16 05:57:00,33.8,30.4,30.28,WSW,244,0.0,0.0,87,0.00,,BKN100,0.00,VWS V14.01,2013-04-16 09:57:00,
2013-04-16 06:02:00,34.0,30.5,30.28,WSW,244,0.0,0.0,87,0.00,,OVC100,0.00,VWS V14.01,2013-04-16 10:02:00,
2013-04-16 06:07:00,34.0,30.5,30.28,WSW,244,0.0,0.0,87,0.00,,OVC100,0.00,VWS V14.01,2013-04-16 10:07:00,
2013-04-16 06:13:00,33.8,30.4,30.28,WSW,244,0.0,0.0,87,0.00,,OVC100,0.00,VWS V14.01,2013-04-16 10:13:00,
2013-04-16 06:18:00,33.8,30.4,30.29,WSW,244,0.0,0.0,87,0.00,,OVC100,0.00,VWS V14.01,2013-04-16 10:18:00,
2013-04-16 06:23:00,33.8,30.4,30.29,WSW,244,0.0,0.0,87,0.00,,OVC100,0.00,VWS V14.01,2013-04-16 10:23:00,
2013-04-16 06:28:00,33.8,30.4,30.29,WSW,244,0.0,0.0,87,0.00,,OVC100,0.00,VWS V14.01,2013-04-16 10:28:00,
2013-04-16 06:33:00,33.7,30.2,30.28,WSW,244,0.0,0.0,87,0.00,,OVC100,0.00,VWS V14.01,2013-04-16 10:33:00,
2013-04-16 06:38:00,33.8,30.6,30.28,WSW,244,0.0,0.0,88,0.00,,OVC100,0.00,VWS V14.01,2013-04-16 10:38:00,
2013-04-16 06:43:00,34.1,30.9,30.28,WSW,244,0.0,1.0,88,0.00,,OVC100,0.00,VWS V14.01,2013-04-16 10:43:00,
2013-04-16 06:48:00,34.4,31.2,30.28,WSW,244,0.0,1.0,88,0.00,,OVC100,0.00,VWS V14.01,2013-04-16 10:48:00,
2013-04-16 06:53:00,35.0,32.1,30.28,WSW,244,0.0,0.0,89,0.00,,OVC100,0.00,VWS V14.01,2013-04-16 10:53:00,
2013-04-16 06:58:00,35.5,32.6,30.28,SW,226,0.0,0.0,89,0.00,,OVC100,0.00,VWS V14.01,2013-04-16 10:58:00,
2013-04-16 07:03:00,35.9,33.3,30.28,SW,224,0.0,0.0,90,0.00,,BKN080,0.00,VWS V14.01,2013-04-16 11:03:00,
2013-04-16 07:09:00,36.6,34.0,30.28,South,176,1.0,2.0,90,0.00,,BKN080,0.00,VWS V14.01,2013-04-16 11:09:00,
2013-04-16 07:14:00,37.2,34.5,30.28,South,178,0.0,0.0,90,0.00,,BKN080,0.00,VWS V14.01,2013-04-16 11:14:00,
2013-04-16 07:19:00,37.8,35.1,30.28,South,185,0.0,3.0,90,0.00,,BKN080,0.00,VWS V14.01,2013-04-16 11:19:00,
2013-04-16 07:24:00,38.2,35.5,30.28,South,184,0.0,1.0,90,0.00,,BKN080,0.00,VWS V14.01,2013-04-16 11:24:00,
2013-04-16 07:29:00,38.8,36.1,30.28,SE,141,0.0,4.0,90,0.00,,BKN080,0.00,VWS V14.01,2013-04-16 11:29:00,
2013-04-16 07:34:00,39.5,36.8,30.29,SSE,164,1.0,3.0,90,0.00,,BKN080,0.00,VWS V14.01,2013-04-16 11:34:00,
2013-04-16 07:39:00,40.2,37.5,30.29,South,176,0.0,6.0,90,0.00,,BKN080,0.00,VWS V14.01,2013-04-16 11:39:00,
2013-04-16 07:44:00,40.9,38.2,30.29,SSE,168,0.0,3.0,90,0.00,,BKN080,0.00,VWS V14.01,2013-04-16 11:44:00,
2013-04-16 07:50:00,41.5,38.5,30.28,South,171,0.0,6.0,89,0.00,,BKN080,0.00,VWS V14.01,2013-04-16 11:50:00,
2013-04-16 07:55:00,42.2,38.9,30.28,SSW,199,6.0,7.0,88,0.00,,BKN080,0.00,VWS V14.01,2013-04-16 11:55:00,
2013-04-16 08:00:00,42.8,39.2,30.28,East,96,1.0,4.0,87,0.00,,BKN080,0.00,VWS V14.01,2013-04-16 12:00:00,
2013-04-16 08:05:00,43.6,39.4,30.28,SSE,165,2.0,7.0,85,0.00,,BKN100,0.00,VWS V14.01,2013-04-16 12:05:00,
2013-04-16 08:10:00,44.3,39.5,30.28,SSE,155,2.0,2.0,83,0.00,,BKN100,0.00,VWS V14.01,2013-04-16 12:10:00,
2013-04-16 08:15:00,45.2,39.7,30.28,SSE,151,4.0,7.0,81,0.00,,BKN100,0.00,VWS V14.01,2013-04-16 12:15:00,
2013-04-16 08:20:00,46.2,40.1,30.28,East,96,2.0,7.0,79,0.00,,BKN100,0.00,VWS V14.01,2013-04-16 12:20:00,
2013-04-16 08:25:00,47.0,39.8,30.28,SE,138,2.0,7.0,76,0.00,,BKN100,0.00,VWS V14.01,2013-04-16 12:25:00,
2013-04-16 08:30:00,47.4,39.5,30.27,SSE,164,0.0,2.0,74,0.00,,BKN100,0.00,VWS V14.01,2013-04-16 12:30:00,
2013-04-16 08:35:00,47.7,39.5,30.27,SSE,161,11.0,11.0,73,0.00,,BKN100,0.00,VWS V14.01,2013-04-16 12:35:00,
2013-04-16 08:40:00,48.0,39.4,30.27,SSE,165,0.0,7.0,72,0.00,,BKN100,0.00,VWS V14.01,2013-04-16 12:40:00,
2013-04-16 08:45:00,48.2,39.6,30.27,SSW,206,9.0,14.0,72,0.00,,BKN100,0.00,VWS V14.01,2013-04-16 12:45:00,
2013-04-16 08:51:00,48.3,39.3,30.27,SW,233,2.0,7.0,71,0.00,,BKN100,0.00,VWS V14.01,2013-04-16 12:51:00,
2013-04-16 08:56:00,48.6,39.6,30.27,East,86,3.0,3.0,71,0.00,,BKN100,0.00,VWS V14.01,2013-04-16 12:56:00,
2013-04-16 09:01:00,48.8,39.8,30.26,SW,233,5.0,9.0,71,0.00,,BKN100,0.00,VWS V14.01,2013-04-16 13:01:00,
2013-04-16 09:06:00,49.1,40.1,30.26,SSW,205,5.0,10.0,71,0.00,,OVC100,0.00,VWS V14.01,2013-04-16 13:06:00,
2013-04-16 09:11:00,49.2,39.8,30.26,SSE,154,2.0,7.0,70,0.00,,OVC100,0.00,VWS V14.01,2013-04-16 13:11:00,
2013-04-16 09:16:00,49.5,39.8,30.26,SW,215,2.0,12.0,69,0.00,,OVC100,0.00,VWS V14.01,2013-04-16 13:16:00,
2013-04-16 09:21:00,49.6,39.9,30.26,SSE,158,4.0,8.0,69,0.00,,OVC100,0.00,VWS V14.01,2013-04-16 13:21:00,
2013-04-16 09:26:00,49.6,39.9,30.26,SE,136,3.0,6.0,69,0.00,,OVC100,0.00,VWS V14.01,2013-04-16 13:26:00,
2013-04-16 09:31:00,49.9,40.2,30.25,SSW,198,7.0,10.0,69,0.00,,OVC100,0.00,VWS V14.01,2013-04-16 13:31:00,
2013-04-16 09:37:00,50.1,40.3,30.25,SE,136,2.0,13.0,69,0.00,,OVC100,0.00,VWS V14.01,2013-04-16 13:37:00,
2013-04-16 09:42:00,50.4,40.6,30.25,South,176,1.0,7.0,69,0.00,,OVC100,0.00,VWS V14.01,2013-04-16 13:42:00,
2013-04-16 09:47:00,50.7,40.9,30.26,SSE,155,0.0,2.0,69,0.00,,OVC100,0.00,VWS V14.01,2013-04-16 13:47:00,
2013-04-16 09:52:00,51.0,40.8,30.26,SW,217,5.0,12.0,68,0.00,,OVC100,0.00,VWS V14.01,2013-04-16 13:52:00,
2013-04-16 09:57:00,51.3,41.1,30.26,SSW,203,6.0,6.0,68,0.00,,OVC100,0.00,VWS V14.01,2013-04-16 13:57:00,
2013-04-16 10:02:00,51.6,41.4,30.25,South,186,2.0,12.0,68,0.00,,FEW021,0.00,VWS V14.01,2013-04-16 14:02:00,
2013-04-16 10:07:00,52.0,41.8,30.25,SSE,167,0.0,7.0,68,0.00,,FEW021,0.00,VWS V14.01,2013-04-16 14:07:00,
2013-04-16 10:12:00,52.5,41.9,30.25,SE,137,6.0,10.0,67,0.00,,FEW021,0.00,VWS V14.01,2013-04-16 14:12:00,
2013-04-16 10:18:00,53.3,42.2,30.26,South,176,3.0,11.0,66,0.00,,FEW021,0.00,VWS V14.01,2013-04-16 14:18:00,
2013-04-16 10:23:00,54.2,42.3,30.26,SE,128,4.0,8.0,64,0.00,,FEW021,0.00,VWS V14.01,2013-04-16 14:23:00,
2013-04-16 10:28:00,55.0,42.2,30.26,South,185,5.0,12.0,62,0.00,,FEW021,0.00,VWS V14.01,2013-04-16 14:28:00,
2013-04-16 10:33:00,55.9,42.7,30.25,SSE,151,6.0,12.0,61,0.00,,FEW021,0.00,VWS V14.01,2013-04-16 14:33:00,
2013-04-16 10:38:00,56.5,42.4,30.25,SSE,158,3.0,10.0,59,0.00,,FEW021,0.00,VWS V14.01,2013-04-16 14:38:00,
2013-04-16 10:43:00,56.9,42.3,30.25,SE,127,2.0,11.0,58,0.00,,FEW021,0.00,VWS V14.01,2013-04-16 14:43:00,
2013-04-16 10:48:00,57.5,42.8,30.25,SSE,168,3.0,8.0,58,0.00,,FEW021,0.00,VWS V14.01,2013-04-16 14:48:00,
2013-04-16 10:54:00,58.1,42.5,30.25,East,88,2.0,7.0,56,0.00,,FEW021,0.00,VWS V14.01,2013-04-16 14:54:00,
2013-04-16 10:59:00,58.7,43.1,30.25,ESE,123,1.0,8.0,56,0.00,,FEW021,0.00,VWS V14.01,2013-04-16 14:59:00,
2013-04-16 11:04:00,59.3,43.2,30.23,SSE,154,3.0,6.0,55,0.00,,CLR,0.00,VWS V14.01,2013-04-16 15:04:00,
2013-04-16 11:09:00,59.8,43.6,30.23,SE,144,9.0,9.0,55,0.00,,CLR,0.00,VWS V14.01,2013-04-16 15:09:00,
2013-04-16 11:14:00,60.1,43.4,30.23,SW,215,3.0,7.0,54,0.00,,CLR,0.00,VWS V14.01,2013-04-16 15:14:00,
2013-04-16 11:19:00,60.4,42.7,30.22,SE,143,5.0,11.0,52,0.00,,CLR,0.00,VWS V14.01,2013-04-16 15:19:00,
2013-04-16 11:24:00,60.9,43.2,30.22,SSE,164,2.0,11.0,52,0.00,,CLR,0.00,VWS V14.01,2013-04-16 15:24:00,
2013-04-16 11:29:00,61.2,43.0,30.22,SSE,167,5.0,11.0,51,0.00,,CLR,0.00,VWS V14.01,2013-04-16 15:29:00,
2013-04-16 11:34:00,61.6,43.8,30.20,SE,136,6.0,8.0,52,0.00,,CLR,0.00,VWS V14.01,2013-04-16 15:34:00,
2013-04-16 11:39:00,62.0,43.2,30.20,ESE,109,3.0,11.0,50,0.00,,CLR,0.00,VWS V14.01,2013-04-16 15:39:00,
2013-04-16 11:45:00,62.3,42.9,30.20,SE,126,0.0,8.0,49,0.00,,CLR,0.00,VWS V14.01,2013-04-16 15:45:00,
2013-04-16 11:50:00,62.7,43.3,30.20,ESE,116,4.0,12.0,49,0.00,,CLR,0.00,VWS V14.01,2013-04-16 15:50:00,
2013-04-16 11:55:00,63.1,43.7,30.20,WSW,241,5.0,7.0,49,0.00,,CLR,0.00,VWS V14.01,2013-04-16 15:55:00,
2013-04-16 12:00:00,63.4,43.9,30.19,SE,144,5.0,11.0,49,0.00,,CLR,0.00,VWS V14.01,2013-04-16 16:00:00,
2013-04-16 12:05:00,63.7,43.7,30.19,SSE,151,6.0,11.0,48,0.00,,SCT120,0.00,VWS V14.01,2013-04-16 16:05:00,
2013-04-16 12:10:00,63.9,42.7,30.19,SE,126,4.0,13.0,46,0.00,,SCT120,0.00,VWS V14.01,2013-04-16 16:10:00,
2013-04-16 12:16:00,64.2,43.0,30.17,South,175,2.0,7.0,46,0.00,,SCT120,0.00,VWS V14.01,2013-04-16 16:16:00,
2013-04-16 12:21:00,63.9,43.3,30.17,SE,144,3.0,7.0,47,0.00,,SCT120,0.00,VWS V14.01,2013-04-16 16:21:00,
2013-04-16 12:26:00,64.3,42.5,30.17,ESE,103,1.0,13.0,45,0.00,,SCT120,0.00,VWS V14.01,2013-04-16 16:26:00,
2013-04-16 12:31:00,64.8,42.4,30.16,SSW,193,8.0,11.0,44,0.00,,SCT120,0.00,VWS V14.01,2013-04-16 16:31:00,
2013-04-16 12:36:00,65.2,41.5,30.16,South,171,6.0,11.0,42,0.00,,SCT120,0.00,VWS V14.01,2013-04-16 16:36:00,
2013-04-16 12:41:00,65.6,43.7,30.16,SSE,155,5.0,8.0,45,0.00,,SCT120,0.00,VWS V14.01,2013-04-16 16:41:00,
2013-04-16 12:46:00,65.8,41.5,30.16,SSW,193,8.0,14.0,41,0.00,,SCT120,0.00,VWS V14.01,2013-04-16 16:46:00,
2013-04-16 12:51:00,65.6,41.3,30.16,SSW,198,14.0,14.0,41,0.00,,SCT120,0.00,VWS V14.01,2013-04-16 16:51:00,
2013-04-16 12:57:00,65.6,40.7,30.16,SSW,205,6.0,7.0,40,0.00,,SCT120,0.00,VWS V14.01,2013-04-16 16:57:00,
2013-04-16 13:02:00,66.0,40.4,30.15,SSW,200,11.0,17.0,39,0.00,,SCT120,0.00,VWS V14.01,2013-04-16 17:02:00,
2013-04-16 13:07:00,65.8,40.8,30.15,South,179,5.0,14.0,40,0.00,,CLR,0.00,VWS V14.01,2013-04-16 17:07:00,
2013-04-16 13:12:00,66.0,41.0,30.15,SSW,210,5.0,13.0,40,0.00,,CLR,0.00,VWS V14.01,2013-04-16 17:12:00,
2013-04-16 13:17:00,65.6,41.3,30.15,SSE,150,7.0,11.0,41,0.00,,CLR,0.00,VWS V14.01,2013-04-16 17:17:00,
2013-04-16 13:22:00,66.0,43.5,30.15,SE,126,2.0,12.0,44,0.00,,CLR,0.00,VWS V14.01,2013-04-16 17:22:00,
2013-04-16 13:27:00,67.1,42.6,30.15,SE,140,0.0,5.0,41,0.00,,CLR,0.00,VWS V14.01,2013-04-16 17:27:00,
2013-04-16 13:33:00,67.4,42.3,30.14,SSE,151,1.0,17.0,40,0.00,,CLR,0.00,VWS V14.01,2013-04-16 17:33:00,
2013-04-16 13:38:00,67.9,41.4,30.14,ESE,114,2.0,6.0,38,0.00,,CLR,0.00,VWS V14.01,2013-04-16 17:38:00,
2013-04-16 13:43:00,67.9,42.1,30.14,SSE,154,1.0,10.0,39,0.00,,CLR,0.00,VWS V14.01,2013-04-16 17:43:00,
2013-04-16 13:48:00,67.6,42.4,30.14,South,181,0.0,7.0,40,0.00,,CLR,0.00,VWS V14.01,2013-04-16 17:48:00,
2013-04-16 13:53:00,67.9,42.1,30.14,NE,42,5.0,11.0,39,0.00,,CLR,0.00,VWS V14.01,2013-04-16 17:53:00,
2013-04-16 13:58:00,68.3,43.7,30.14,East,93,0.0,3.0,41,0.00,,CLR,0.00,VWS V14.01,2013-04-16 17:58:00,
2013-04-16 14:03:00,68.4,42.5,30.13,SSW,210,10.0,16.0,39,0.00,,OVC070,0.00,VWS V14.01,2013-04-16 18:03:00,
2013-04-16 14:08:00,68.3,42.4,30.13,SSE,164,6.0,12.0,39,0.00,,OVC070,0.00,VWS V14.01,2013-04-16 18:08:00,
2013-04-16 14:13:00,68.1,42.2,30.13,South,169,7.0,8.0,39,0.00,,OVC070,0.00,VWS V14.01,2013-04-16 18:13:00,
2013-04-16 14:18:00,67.8,42.6,30.13,South,174,5.0,12.0,40,0.00,,OVC070,0.00,VWS V14.01,2013-04-16 18:18:00,
2013-04-16 14:24:00,67.4,42.9,30.13,SSE,150,5.0,14.0,41,0.00,,OVC070,0.00,VWS V14.01,2013-04-16 18:24:00,
2013-04-16 14:29:00,67.3,42.2,30.13,SSE,167,7.0,19.0,40,0.00,,OVC070,0.00,VWS V14.01,2013-04-16 18:29:00,
2013-04-16 14:34:00,66.9,43.7,30.12,SSW,199,5.0,11.0,43,0.00,,OVC070,0.00,VWS V14.01,2013-04-16 18:34:00,
2013-04-16 14:39:00,67.9,43.4,30.12,SE,124,0.0,15.0,41,0.00,,OVC070,0.00,VWS V14.01,2013-04-16 18:39:00,
2013-04-16 14:44:00,68.3,43.7,30.12,South,169,2.0,11.0,41,0.00,,OVC070,0.00,VWS V14.01,2013-04-16 18:44:00,
2013-04-16 14:50:00,68.3,43.1,30.12,SSE,162,1.0,6.0,40,0.00,,OVC070,0.00,VWS V14.01,2013-04-16 18:50:00,
2013-04-16 14:55:00,68.1,43.5,30.12,SSW,209,10.0,12.0,41,0.00,,OVC070,0.00,VWS V14.01,2013-04-16 18:55:00,
2013-04-16 15:00:00,67.4,42.9,30.12,SSW,193,9.0,10.0,41,0.00,,OVC070,0.00,VWS V14.01,2013-04-16 19:00:00,
2013-04-16 15:05:00,66.6,43.4,30.12,SSE,157,7.0,21.0,43,0.00,,BKN110,0.00,VWS V14.01,2013-04-16 19:05:00,
2013-04-16 15:10:00,65.8,43.9,30.12,SSE,154,5.0,9.0,45,0.00,,BKN110,0.00,VWS V14.01,2013-04-16 19:10:00,
2013-04-16 15:15:00,65.5,44.2,30.11,SSE,148,3.0,12.0,46,0.00,,BKN110,0.00,VWS V14.01,2013-04-16 19:15:00,
2013-04-16 15:20:00,65.2,44.5,30.11,SSW,193,9.0,10.0,47,0.00,,BKN110,0.00,VWS V14.01,2013-04-16 19:20:00,
2013-04-16 15:25:00,64.8,44.7,30.11,South,182,12.0,14.0,48,0.00,,BKN110,0.00,VWS V14.01,2013-04-16 19:25:00,
2013-04-16 15:31:00,64.2,45.2,30.11,South,169,3.0,12.0,50,0.00,,BKN110,0.00,VWS V14.01,2013-04-16 19:31:00,
2013-04-16 15:36:00,63.7,45.2,30.11,SSE,152,2.0,11.0,51,0.00,,BKN110,0.00,VWS V14.01,2013-04-16 19:36:00,
2013-04-16 15:41:00,63.2,45.3,30.11,SSE,151,1.0,12.0,52,0.00,,BKN110,0.00,VWS V14.01,2013-04-16 19:41:00,
2013-04-16 15:46:00,62.9,45.0,30.11,SSW,213,2.0,6.0,52,0.00,,BKN110,0.00,VWS V14.01,2013-04-16 19:46:00,
2013-04-16 15:52:00,62.7,46.3,30.11,SSE,154,2.0,5.0,55,0.00,,BKN110,0.00,VWS V14.01,2013-04-16 19:52:00,
2013-04-16 15:57:00,62.1,48.1,30.11,East,96,2.0,13.0,60,0.00,,BKN110,0.00,VWS V14.01,2013-04-16 19:57:00,
2013-04-16 16:02:00,61.3,47.8,30.11,South,185,7.0,8.0,61,0.00,,BKN110,0.00,VWS V14.01,2013-04-16 20:02:00,
2013-04-16 16:07:00,60.9,47.8,30.11,South,179,0.0,2.0,62,0.00,,-RA,0.00,VWS V14.01,2013-04-16 20:07:00,
2013-04-16 16:12:00,60.4,47.8,30.11,South,176,3.0,13.0,63,0.00,,-RA,0.00,VWS V14.01,2013-04-16 20:12:00,
2013-04-16 16:17:00,59.8,47.6,30.08,SSE,150,8.0,14.0,64,0.01,,-RA,0.01,VWS V14.01,2013-04-16 20:17:00,
2013-04-16 16:22:00,59.5,47.3,30.08,South,182,3.0,7.0,64,0.01,,-RA,0.01,VWS V14.01,2013-04-16 20:22:00,
2013-04-16 16:27:00,59.2,47.0,30.08,South,185,4.0,6.0,64,0.01,,-RA,0.01,VWS V14.01,2013-04-16 20:27:00,
2013-04-16 16:32:00,59.0,47.3,30.08,South,181,0.0,8.0,65,0.01,,-RA,0.01,VWS V14.01,2013-04-16 20:32:00,
2013-04-16 16:38:00,59.0,46.8,30.08,SSE,160,3.0,12.0,64,0.01,,-RA,0.01,VWS V14.01,2013-04-16 20:38:00,
2013-04-16 16:43:00,59.0,47.3,30.08,SW,222,1.0,5.0,65,0.01,,-RA,0.01,VWS V14.01,2013-04-16 20:43:00,
2013-04-16 16:48:00,59.2,47.5,30.08,SSW,212,0.0,8.0,65,0.01,,-RA,0.01,VWS V14.01,2013-04-16 20:48:00,
2013-04-16 16:53:00,59.2,47.5,30.08,South,176,3.0,8.0,65,0.01,,-RA,0.01,VWS V14.01,2013-04-16 20:53:00,
2013-04-16 16:58:00,59.3,47.5,30.08,SSE,157,3.0,10.0,65,0.01,,-RA,0.01,VWS V14.01,2013-04-16 20:58:00,
2013-04-16 17:03:00,59.3,47.1,30.06,SSE,161,3.0,14.0,64,0.01,,-RA,0.01,VWS V14.01,2013-04-16 21:03:00,
2013-04-16 17:08:00,59.2,47.0,30.06,SSE,158,5.0,10.0,64,0.01,,-RA,0.01,VWS V14.01,2013-04-16 21:08:00,
2013-04-16 17:14:00,59.0,47.3,30.06,SSE,157,1.0,7.0,65,0.01,,-RA,0.01,VWS V14.01,2013-04-16 21:14:00,
2013-04-16 17:19:00,58.9,47.6,30.07,SE,131,3.0,9.0,66,0.01,,-RA,0.01,VWS V14.01,2013-04-16 21:19:00,
2013-04-16 17:24:00,58.7,47.4,30.07,South,182,10.0,16.0,66,0.00,,BKN035,0.01,VWS V14.01,2013-04-16 21:24:00,
2013-04-16 17:29:00,58.4,47.1,30.07,SSE,158,5.0,12.0,66,0.00,,BKN035,0.01,VWS V14.01,2013-04-16 21:29:00,
2013-04-16 17:34:00,58.3,47.0,30.05,SSE,165,2.0,10.0,66,0.00,,BKN035,0.01,VWS V14.01,2013-04-16 21:34:00,
2013-04-16 17:39:00,58.1,47.2,30.05,South,175,2.0,11.0,67,0.00,,BKN035,0.01,VWS V14.01,2013-04-16 21:39:00,
2013-04-16 17:44:00,58.0,47.1,30.05,SSE,165,6.0,14.0,67,0.00,,BKN035,0.01,VWS V14.01,2013-04-16 21:44:00,
2013-04-16 17:49:00,57.8,47.3,30.05,SSE,154,0.0,6.0,68,0.00,,BKN035,0.01,VWS V14.01,2013-04-16 21:49:00,
2013-04-16 17:54:00,57.8,47.3,30.05,SE,144,7.0,7.0,68,0.00,,BKN035,0.01,VWS V14.01,2013-04-16 21:54:00,
2013-04-16 17:59:00,58.0,47.5,30.05,South,175,6.0,6.0,68,0.00,,BKN035,0.01,VWS V14.01,2013-04-16 21:59:00,
2013-04-16 18:05:00,57.8,47.3,30.06,SW,232,12.0,13.0,68,0.00,,OVC022,0.01,VWS V14.01,2013-04-16 22:05:00,
2013-04-16 18:10:00,57.8,47.3,30.06,South,189,6.0,9.0,68,0.00,,OVC022,0.01,VWS V14.01,2013-04-16 22:10:00,
2013-04-16 18:15:00,57.6,47.5,30.05,SSW,193,2.0,11.0,69,0.00,,OVC022,0.01,VWS V14.01,2013-04-16 22:15:00,
2013-04-16 18:20:00,57.6,47.5,30.05,SSW,196,2.0,3.0,69,0.00,,OVC022,0.01,VWS V14.01,2013-04-16 22:20:00,
2013-04-16 18:25:00,57.5,47.4,30.05,SSW,208,1.0,11.0,69,0.00,,OVC022,0.01,VWS V14.01,2013-04-16 22:25:00,
2013-04-16 18:30:00,57.3,47.2,30.05,SSE,161,6.0,13.0,69,0.00,,OVC022,0.01,VWS V14.01,2013-04-16 22:30:00,
2013-04-16 18:36:00,57.3,47.6,30.05,SSE,160,5.0,10.0,70,0.00,,OVC022,0.01,VWS V14.01,2013-04-16 22:36:00,
2013-04-16 18:41:00,57.2,47.5,30.05,SE,144,6.0,8.0,70,0.00,,OVC022,0.01,VWS V14.01,2013-04-16 22:41:00,
2013-04-16 18:46:00,57.0,47.3,30.05,South,178,1.0,6.0,70,0.00,,OVC022,0.01,VWS V14.01,2013-04-16 22:46:00,
2013-04-16 18:51:00,57.0,47.7,30.05,South,184,0.0,5.0,71,0.00,,OVC022,0.01,VWS V14.01,2013-04-16 22:51:00,
2013-04-16 18:56:00,57.0,47.7,30.05,South,172,6.0,6.0,71,0.00,,OVC022,0.01,VWS V14.01,2013-04-16 22:56:00,
2013-04-16 19:01:00,56.9,47.6,30.04,ESE,117,2.0,3.0,71,0.00,,OVC022,0.01,VWS V14.01,2013-04-16 23:01:00,
2013-04-16 19:07:00,56.9,48.0,30.04,South,182,1.0,3.0,72,0.00,,OVC020,0.01,VWS V14.01,2013-04-16 23:07:00,
2013-04-16 19:12:00,56.7,47.8,30.04,South,179,3.0,7.0,72,0.00,,OVC020,0.01,VWS V14.01,2013-04-16 23:12:00,
2013-04-16 19:17:00,56.7,47.8,30.03,SSE,165,2.0,6.0,72,0.00,,OVC020,0.01,VWS V14.01,2013-04-16 23:17:00,
2013-04-16 19:22:00,56.7,47.8,30.03,SSE,162,1.0,3.0,72,0.00,,OVC020,0.01,VWS V14.01,2013-04-16 23:22:00,
2013-04-16 19:27:00,56.7,47.8,30.03,South,178,0.0,3.0,72,0.00,,OVC020,0.01,VWS V14.01,2013-04-16 23:27:00,
2013-04-16 19:32:00,56.6,48.1,30.03,South,172,1.0,3.0,73,0.00,,OVC020,0.01,VWS V14.01,2013-04-16 23:32:00,
2013-04-16 19:37:00,56.6,48.1,30.03,South,169,0.0,3.0,73,0.00,,OVC020,0.01,VWS V14.01,2013-04-16 23:37:00,
2013-04-16 19:42:00,56.6,48.4,30.03,South,178,0.0,1.0,74,0.00,,OVC020,0.01,VWS V14.01,2013-04-16 23:42:00,
2013-04-16 19:47:00,56.6,48.4,30.04,South,175,0.0,4.0,74,0.00,,OVC020,0.01,VWS V14.01,2013-04-16 23:47:00,
2013-04-16 19:53:00,56.6,48.4,30.04,South,184,1.0,8.0,74,0.00,,OVC020,0.01,VWS V14.01,2013-04-16 23:53:00,
2013-04-16 19:58:00,56.6,48.8,30.04,SSE,165,1.0,6.0,75,0.00,,OVC020,0.01,VWS V14.01,2013-04-16 23:58:00,
2013-04-16 20:03:00,56.6,48.8,30.04,SSW,202,0.0,11.0,75,0.00,,OVC020,0.01,VWS V14.01,2013-04-17 00:03:00,
2013-04-16 20:08:00,56.6,48.8,30.04,WSW,244,5.0,7.0,75,0.00,,OVC020,0.01,VWS V14.01,2013-04-17 00:08:00,
2013-04-16 20:13:00,56.6,48.8,30.04,WSW,247,5.0,8.0,75,0.00,,OVC020,0.01,VWS V14.01,2013-04-17 00:13:00,
2013-04-16 20:18:00,56.6,49.1,30.05,SSE,157,0.0,3.0,76,0.00,,OVC020,0.01,VWS V14.01,2013-04-17 00:18:00,
2013-04-16 20:23:00,56.6,49.1,30.05,SSW,210,3.0,8.0,76,0.00,,OVC020,0.01,VWS V14.01,2013-04-17 00:23:00,
2013-04-16 20:28:00,56.6,49.1,30.05,South,175,2.0,11.0,76,0.00,,OVC020,0.01,VWS V14.01,2013-04-17 00:28:00,
2013-04-16 20:34:00,56.6,49.1,30.04,SSE,164,2.0,5.0,76,0.00,,OVC020,0.01,VWS V14.01,2013-04-17 00:34:00,
2013-04-16 20:39:00,56.6,49.1,30.04,SSW,200,6.0,6.0,76,0.00,,OVC020,0.01,VWS V14.01,2013-04-17 00:39:00,
2013-04-16 20:44:00,56.6,49.1,30.04,South,172,2.0,7.0,76,0.00,,OVC020,0.01,VWS V14.01,2013-04-17 00:44:00,
2013-04-16 20:49:00,56.5,49.4,30.04,South,175,10.0,10.0,77,0.00,,OVC020,0.01,VWS V14.01,2013-04-17 00:49:00,
2013-04-16 20:54:00,56.5,49.4,30.04,SSW,193,5.0,7.0,77,0.00,,OVC020,0.01,VWS V14.01,2013-04-17 00:54:00,
2013-04-16 20:59:00,56.5,49.4,30.04,SSW,206,6.0,14.0,77,0.00,,OVC020,0.01,VWS V14.01,2013-04-17 00:59:00,
2013-04-16 21:04:00,56.5,49.4,30.01,South,179,2.0,7.0,77,0.00,,OVC020,0.01,VWS V14.01,2013-04-17 01:04:00,
2013-04-16 21:10:00,56.5,49.4,30.01,South,169,1.0,11.0,77,0.00,,OVC020,0.01,VWS V14.01,2013-04-17 01:10:00,
2013-04-16 21:15:00,56.5,49.7,30.00,South,182,0.0,5.0,78,0.00,,OVC020,0.01,VWS V14.01,2013-04-17 01:15:00,
2013-04-16 21:20:00,56.5,49.7,30.00,South,182,5.0,10.0,78,0.00,,OVC020,0.01,VWS V14.01,2013-04-17 01:20:00,
2013-04-16 21:25:00,56.3,49.5,30.00,SSE,160,5.0,10.0,78,0.00,,OVC020,0.01,VWS V14.01,2013-04-17 01:25:00,
2013-04-16 21:30:00,56.3,49.5,30.01,South,191,3.0,12.0,78,0.00,,OVC020,0.01,VWS V14.01,2013-04-17 01:30:00,
2013-04-16 21:35:00,56.3,49.5,30.01,SSE,161,1.0,8.0,78,0.00,,OVC020,0.01,VWS V14.01,2013-04-17 01:35:00,
2013-04-16 21:40:00,56.5,49.7,30.01,South,172,10.0,10.0,78,0.00,,OVC020,0.01,VWS V14.01,2013-04-17 01:40:00,
2013-04-16 21:46:00,56.5,49.7,30.02,SSE,168,4.0,6.0,78,0.00,,OVC020,0.01,VWS V14.01,2013-04-17 01:46:00,
2013-04-16 21:51:00,56.5,49.7,30.02,South,178,5.0,8.0,78,0.00,,OVC020,0.01,VWS V14.01,2013-04-17 01:51:00,
2013-04-16 21:56:00,56.6,49.8,30.02,South,169,2.0,7.0,78,0.00,,OVC020,0.01,VWS V14.01,2013-04-17 01:56:00,
2013-04-16 22:01:00,56.6,49.8,30.01,SE,144,4.0,10.0,78,0.00,,OVC020,0.01,VWS V14.01,2013-04-17 02:01:00,
2013-04-16 22:06:00,56.6,49.8,30.01,South,186,7.0,10.0,78,0.00,,OVC020,0.01,VWS V14.01,2013-04-17 02:06:00,
2013-04-16 22:11:00,56.7,49.6,30.01,SSE,168,3.0,13.0,77,0.00,,OVC020,0.01,VWS V14.01,2013-04-17 02:11:00,
2013-04-16 22:16:00,56.7,49.6,30.00,ESE,107,6.0,11.0,77,0.00,,OVC020,0.01,VWS V14.01,2013-04-17 02:16:00,
2013-04-16 22:21:00,56.7,49.6,30.00,SSE,148,5.0,11.0,77,0.00,,OVC020,0.01,VWS V14.01,2013-04-17 02:21:00,
2013-04-16 22:26:00,56.7,49.6,30.00,South,181,5.0,13.0,77,0.00,,BKN110,0.01,VWS V14.01,2013-04-17 02:26:00,
2013-04-16 22:31:00,56.7,49.6,30.00,SSE,165,10.0,13.0,77,0.00,,BKN110,0.01,VWS V14.01,2013-04-17 02:31:00,
2013-04-16 22:37:00,56.6,49.5,30.00,SSW,212,4.0,18.0,77,0.00,,BKN110,0.01,VWS V14.01,2013-04-17 02:37:00,
2013-04-16 22:42:00,56.6,49.5,30.00,South,169,3.0,14.0,77,0.00,,BKN110,0.01,VWS V14.01,2013-04-17 02:42:00,
2013-04-16 22:47:00,56.5,49.7,30.00,South,184,0.0,8.0,78,0.00,,BKN110,0.01,VWS V14.01,2013-04-17 02:47:00,
2013-04-16 22:52:00,56.5,49.7,30.00,SW,232,3.0,12.0,78,0.00,,BKN110,0.01,VWS V14.01,2013-04-17 02:52:00,
2013-04-16 22:57:00,56.3,49.5,30.00,SW,217,10.0,11.0,78,0.00,,BKN110,0.01,VWS V14.01,2013-04-17 02:57:00,
2013-04-16 23:02:00,56.3,49.5,29.99,South,179,10.0,10.0,78,0.00,,OVC100,0.01,VWS V14.01,2013-04-17 03:02:00,
2013-04-16 23:07:00,56.3,49.5,29.99,SSW,212,4.0,13.0,78,0.00,,OVC100,0.01,VWS V14.01,2013-04-17 03:07:00,
2013-04-16 23:12:00,56.3,49.5,29.99,SSW,205,5.0,10.0,78,0.00,,OVC100,0.01,VWS V14.01,2013-04-17 03:12:00,
2013-04-16 23:18:00,56.3,49.5,29.98,South,184,1.0,11.0,78,0.00,,OVC100,0.01,VWS V14.01,2013-04-17 03:18:00,
2013-04-16 23:23:00,56.3,49.5,29.98,SSE,164,8.0,8.0,78,0.00,,OVC100,0.01,VWS V14.01,2013-04-17 03:23:00,
2013-04-16 23:28:00,56.3,49.9,29.98,SSE,168,6.0,7.0,79,0.00,,OVC100,0.01,VWS V14.01,2013-04-17 03:28:00,
2013-04-16 23:33:00,56.3,49.9,29.99,South,175,5.0,6.0,79,0.00,,OVC100,0.01,VWS V14.01,2013-04-17 03:33:00,
2013-04-16 23:38:00,56.3,49.9,29.99,South,171,16.0,16.0,79,0.00,,OVC100,0.01,VWS V14.01,2013-04-17 03:38:00,
2013-04-16 23:43:00,56.3,49.9,29.99,SSE,167,1.0,6.0,79,0.00,,OVC100,0.01,VWS V14.01,2013-04-17 03:43:00,
2013-04-16 23:48:00,56.3,49.9,29.99,SSW,203,3.0,7.0,79,0.00,,OVC100,0.01,VWS V14.01,2013-04-17 03:48:00,
2013-04-16 23:54:00,56.3,49.9,29.99,SW,216,2.0,10.0,79,0.00,,OVC100,0.01,VWS V14.01,2013-04-17 03:54:00,
2013-04-16 23:59:00,56.3,49.9,29.99,SE,136,3.0,11.0,79,0.00,,OVC100,0.01,VWS V14.01,2013-04-17 03:59:00,